sensor_id;sensor_type;location;lat;lon;timestamp;P1;durP1;ratioP1;P2;durP2;ratioP2
21539;SDS011;10931;52.164;5.518;2024-01-15T00:02:11;4.05;;;0.90;;
21539;SDS011;10931;52.164;5.518;2024-01-15T00:04:40;12.73;;;1.45;;
21539;SDS011;10931;52.164;5.518;2024-01-15T00:07:06;11.85;;;1.55;;
21539;SDS011;10931;52.164;5.518;2024-01-15T00:09:33;4.82;;;1.20;;
21539;SDS011;10931;52.164;5.518;2024-01-15T00:11:59;5.63;;;1.17;;
21539;SDS011;10931;52.164;5.518;2024-01-15T00:14:25;10.82;;;1.05;;
21539;SDS011;10931;52.164;5.518;2024-01-15T00:16:51;8.75;;;0.95;;
21539;SDS011;10931;52.164;5.518;2024-01-15T00:19:20;4.10;;;1.10;;
21539;SDS011;10931;52.164;5.518;2024-01-15T00:21:46;11.52;;;2.05;;
21539;SDS011;10931;52.164;5.518;2024-01-15T00:24:12;10.07;;;1.02;;
21539;SDS011;10931;52.164;5.518;2024-01-15T00:26:38;9.20;;;1.25;;
21539;SDS011;10931;52.164;5.518;2024-01-15T00:29:04;14.95;;;1.23;;
21539;SDS011;10931;52.164;5.518;2024-01-15T00:31:30;5.00;;;1.02;;
21539;SDS011;10931;52.164;5.518;2024-01-15T00:33:56;9.85;;;1.60;;
21539;SDS011;10931;52.164;5.518;2024-01-15T00:36:25;12.73;;;1.17;;
21539;SDS011;10931;52.164;5.518;2024-01-15T00:38:51;8.43;;;1.23;;
21539;SDS011;10931;52.164;5.518;2024-01-15T00:41:17;4.75;;;1.08;;
21539;SDS011;10931;52.164;5.518;2024-01-15T00:43:46;4.28;;;1.02;;
21539;SDS011;10931;52.164;5.518;2024-01-15T00:46:14;13.60;;;1.40;;
21539;SDS011;10931;52.164;5.518;2024-01-15T00:48:40;12.43;;;1.20;;
21539;SDS011;10931;52.164;5.518;2024-01-15T00:51:06;8.85;;;1.35;;
21539;SDS011;10931;52.164;5.518;2024-01-15T00:53:32;10.48;;;1.27;;
21539;SDS011;10931;52.164;5.518;2024-01-15T00:55:58;12.32;;;1.48;;
21539;SDS011;10931;52.164;5.518;2024-01-15T00:58:25;11.65;;;1.42;;
21539;SDS011;10931;52.164;5.518;2024-01-15T01:00:51;9.82;;;1.10;;
21539;SDS011;10931;52.164;5.518;2024-01-15T01:03:17;9.38;;;1.75;;
21539;SDS011;10931;52.164;5.518;2024-01-15T01:05:43;8.38;;;1.17;;
21539;SDS011;10931;52.164;5.518;2024-01-15T01:08:09;10.05;;;1.42;;
21539;SDS011;10931;52.164;5.518;2024-01-15T01:10:36;12.57;;;1.55;;
21539;SDS011;10931;52.164;5.518;2024-01-15T01:13:02;18.35;;;1.70;;
21539;SDS011;10931;52.164;5.518;2024-01-15T01:15:28;15.57;;;0.93;;
21539;SDS011;10931;52.164;5.518;2024-01-15T01:17:54;12.32;;;1.23;;
21539;SDS011;10931;52.164;5.518;2024-01-15T01:20:20;7.97;;;1.50;;
21539;SDS011;10931;52.164;5.518;2024-01-15T01:22:45;9.63;;;1.30;;
21539;SDS011;10931;52.164;5.518;2024-01-15T01:25:11;10.90;;;1.10;;
21539;SDS011;10931;52.164;5.518;2024-01-15T01:27:37;8.63;;;0.95;;
21539;SDS011;10931;52.164;5.518;2024-01-15T01:30:03;16.27;;;1.23;;
21539;SDS011;10931;52.164;5.518;2024-01-15T01:32:30;12.73;;;1.17;;
21539;SDS011;10931;52.164;5.518;2024-01-15T01:34:56;16.38;;;1.75;;
21539;SDS011;10931;52.164;5.518;2024-01-15T01:37:22;5.60;;;0.90;;
21539;SDS011;10931;52.164;5.518;2024-01-15T01:39:48;9.10;;;1.40;;
21539;SDS011;10931;52.164;5.518;2024-01-15T01:42:14;6.97;;;1.02;;
21539;SDS011;10931;52.164;5.518;2024-01-15T01:44:40;11.15;;;0.82;;
21539;SDS011;10931;52.164;5.518;2024-01-15T01:47:06;11.18;;;1.08;;
21539;SDS011;10931;52.164;5.518;2024-01-15T01:49:32;20.10;;;1.25;;
21539;SDS011;10931;52.164;5.518;2024-01-15T01:52:00;13.18;;;1.60;;
21539;SDS011;10931;52.164;5.518;2024-01-15T01:54:29;12.30;;;1.30;;
21539;SDS011;10931;52.164;5.518;2024-01-15T01:56:56;6.57;;;1.30;;
21539;SDS011;10931;52.164;5.518;2024-01-15T01:59:23;12.73;;;1.20;;
21539;SDS011;10931;52.164;5.518;2024-01-15T02:01:53;13.52;;;1.20;;
21539;SDS011;10931;52.164;5.518;2024-01-15T02:04:20;15.57;;;1.70;;
21539;SDS011;10931;52.164;5.518;2024-01-15T02:06:50;12.23;;;1.02;;
21539;SDS011;10931;52.164;5.518;2024-01-15T02:09:16;9.20;;;1.35;;
21539;SDS011;10931;52.164;5.518;2024-01-15T02:11:43;8.25;;;1.13;;
21539;SDS011;10931;52.164;5.518;2024-01-15T02:14:09;5.82;;;0.98;;
21539;SDS011;10931;52.164;5.518;2024-01-15T02:16:38;7.55;;;0.98;;
21539;SDS011;10931;52.164;5.518;2024-01-15T02:19:06;10.18;;;1.17;;
21539;SDS011;10931;52.164;5.518;2024-01-15T02:21:32;9.40;;;1.17;;
21539;SDS011;10931;52.164;5.518;2024-01-15T02:23:58;9.10;;;1.20;;
21539;SDS011;10931;52.164;5.518;2024-01-15T02:26:24;9.60;;;1.00;;
21539;SDS011;10931;52.164;5.518;2024-01-15T02:28:53;9.90;;;1.23;;
21539;SDS011;10931;52.164;5.518;2024-01-15T02:31:19;11.57;;;1.05;;
21539;SDS011;10931;52.164;5.518;2024-01-15T02:33:45;6.43;;;1.60;;
21539;SDS011;10931;52.164;5.518;2024-01-15T02:36:11;7.70;;;0.95;;
21539;SDS011;10931;52.164;5.518;2024-01-15T02:38:37;5.90;;;0.85;;
21539;SDS011;10931;52.164;5.518;2024-01-15T02:41:03;5.40;;;0.93;;
21539;SDS011;10931;52.164;5.518;2024-01-15T02:43:29;9.60;;;1.00;;
21539;SDS011;10931;52.164;5.518;2024-01-15T02:45:55;5.45;;;0.90;;
21539;SDS011;10931;52.164;5.518;2024-01-15T02:48:21;9.15;;;0.80;;
21539;SDS011;10931;52.164;5.518;2024-01-15T02:50:46;7.75;;;0.88;;
21539;SDS011;10931;52.164;5.518;2024-01-15T02:53:15;8.13;;;1.02;;
21539;SDS011;10931;52.164;5.518;2024-01-15T02:55:41;7.20;;;0.65;;
21539;SDS011;10931;52.164;5.518;2024-01-15T02:58:07;8.77;;;0.80;;
21539;SDS011;10931;52.164;5.518;2024-01-15T03:00:32;4.07;;;0.55;;
21539;SDS011;10931;52.164;5.518;2024-01-15T03:02:58;7.57;;;0.85;;
21539;SDS011;10931;52.164;5.518;2024-01-15T03:05:24;7.22;;;0.60;;
21539;SDS011;10931;52.164;5.518;2024-01-15T03:07:50;5.25;;;0.63;;
21539;SDS011;10931;52.164;5.518;2024-01-15T03:10:16;6.53;;;0.75;;
21539;SDS011;10931;52.164;5.518;2024-01-15T03:12:42;2.28;;;0.32;;
21539;SDS011;10931;52.164;5.518;2024-01-15T03:15:08;2.47;;;0.32;;
21539;SDS011;10931;52.164;5.518;2024-01-15T03:17:33;1.95;;;0.52;;
21539;SDS011;10931;52.164;5.518;2024-01-15T03:19:59;6.57;;;0.73;;
21539;SDS011;10931;52.164;5.518;2024-01-15T03:22:25;2.38;;;0.40;;
21539;SDS011;10931;52.164;5.518;2024-01-15T03:24:52;9.20;;;0.70;;
21539;SDS011;10931;52.164;5.518;2024-01-15T03:27:18;9.02;;;0.90;;
21539;SDS011;10931;52.164;5.518;2024-01-15T03:29:43;1.45;;;0.47;;
21539;SDS011;10931;52.164;5.518;2024-01-15T03:32:09;5.57;;;0.73;;
21539;SDS011;10931;52.164;5.518;2024-01-15T03:34:35;8.48;;;1.33;;
21539;SDS011;10931;52.164;5.518;2024-01-15T03:37:01;7.65;;;1.10;;
21539;SDS011;10931;52.164;5.518;2024-01-15T03:39:26;12.20;;;0.73;;
21539;SDS011;10931;52.164;5.518;2024-01-15T03:41:52;5.15;;;0.47;;
21539;SDS011;10931;52.164;5.518;2024-01-15T03:44:18;2.70;;;0.70;;
21539;SDS011;10931;52.164;5.518;2024-01-15T03:46:43;8.57;;;1.17;;
21539;SDS011;10931;52.164;5.518;2024-01-15T03:49:09;9.15;;;0.77;;
21539;SDS011;10931;52.164;5.518;2024-01-15T03:51:35;8.23;;;1.05;;
21539;SDS011;10931;52.164;5.518;2024-01-15T03:54:00;6.88;;;0.93;;
21539;SDS011;10931;52.164;5.518;2024-01-15T03:56:26;4.22;;;0.88;;
21539;SDS011;10931;52.164;5.518;2024-01-15T03:58:52;5.82;;;0.77;;
21539;SDS011;10931;52.164;5.518;2024-01-15T04:01:17;2.38;;;0.55;;
21539;SDS011;10931;52.164;5.518;2024-01-15T04:03:43;5.85;;;1.00;;
21539;SDS011;10931;52.164;5.518;2024-01-15T04:06:09;2.55;;;0.52;;
21539;SDS011;10931;52.164;5.518;2024-01-15T04:08:35;3.80;;;0.75;;
21539;SDS011;10931;52.164;5.518;2024-01-15T04:11:00;7.70;;;0.75;;
21539;SDS011;10931;52.164;5.518;2024-01-15T04:13:30;3.13;;;0.40;;
21539;SDS011;10931;52.164;5.518;2024-01-15T04:15:57;5.43;;;1.00;;
21539;SDS011;10931;52.164;5.518;2024-01-15T04:18:23;3.22;;;0.60;;
21539;SDS011;10931;52.164;5.518;2024-01-15T04:20:49;6.15;;;0.82;;
21539;SDS011;10931;52.164;5.518;2024-01-15T04:23:14;2.15;;;0.68;;
21539;SDS011;10931;52.164;5.518;2024-01-15T04:25:40;8.07;;;1.60;;
21539;SDS011;10931;52.164;5.518;2024-01-15T04:28:07;13.75;;;1.27;;
21539;SDS011;10931;52.164;5.518;2024-01-15T04:30:34;11.48;;;1.30;;
21539;SDS011;10931;52.164;5.518;2024-01-15T04:32:59;5.07;;;0.90;;
21539;SDS011;10931;52.164;5.518;2024-01-15T04:35:25;6.28;;;1.10;;
21539;SDS011;10931;52.164;5.518;2024-01-15T04:37:50;9.10;;;1.20;;
21539;SDS011;10931;52.164;5.518;2024-01-15T04:40:17;8.93;;;0.90;;
21539;SDS011;10931;52.164;5.518;2024-01-15T04:42:42;5.55;;;0.85;;
21539;SDS011;10931;52.164;5.518;2024-01-15T04:45:10;8.70;;;1.27;;
21539;SDS011;10931;52.164;5.518;2024-01-15T04:47:36;6.03;;;1.20;;
21539;SDS011;10931;52.164;5.518;2024-01-15T04:50:03;6.75;;;0.93;;
21539;SDS011;10931;52.164;5.518;2024-01-15T04:52:29;4.22;;;0.88;;
21539;SDS011;10931;52.164;5.518;2024-01-15T04:54:55;5.05;;;0.98;;
21539;SDS011;10931;52.164;5.518;2024-01-15T04:57:21;8.48;;;0.82;;
21539;SDS011;10931;52.164;5.518;2024-01-15T04:59:46;2.58;;;0.90;;
21539;SDS011;10931;52.164;5.518;2024-01-15T05:02:15;4.63;;;0.90;;
21539;SDS011;10931;52.164;5.518;2024-01-15T05:04:40;6.65;;;0.70;;
21539;SDS011;10931;52.164;5.518;2024-01-15T05:07:06;6.80;;;1.10;;
21539;SDS011;10931;52.164;5.518;2024-01-15T05:09:32;6.65;;;1.40;;
21539;SDS011;10931;52.164;5.518;2024-01-15T05:11:58;3.83;;;0.82;;
21539;SDS011;10931;52.164;5.518;2024-01-15T05:14:23;4.75;;;0.80;;
21539;SDS011;10931;52.164;5.518;2024-01-15T05:16:49;11.80;;;1.17;;
21539;SDS011;10931;52.164;5.518;2024-01-15T05:19:15;3.42;;;0.73;;
21539;SDS011;10931;52.164;5.518;2024-01-15T05:21:41;10.98;;;1.00;;
21539;SDS011;10931;52.164;5.518;2024-01-15T05:24:07;9.25;;;0.88;;
21539;SDS011;10931;52.164;5.518;2024-01-15T05:26:33;6.88;;;1.05;;
21539;SDS011;10931;52.164;5.518;2024-01-15T05:28:59;9.48;;;0.80;;
21539;SDS011;10931;52.164;5.518;2024-01-15T05:31:25;8.40;;;0.90;;
21539;SDS011;10931;52.164;5.518;2024-01-15T05:33:50;7.47;;;0.82;;
21539;SDS011;10931;52.164;5.518;2024-01-15T05:36:16;14.43;;;1.15;;
21539;SDS011;10931;52.164;5.518;2024-01-15T05:38:42;11.88;;;1.05;;
21539;SDS011;10931;52.164;5.518;2024-01-15T05:41:08;6.28;;;1.27;;
21539;SDS011;10931;52.164;5.518;2024-01-15T05:43:33;9.15;;;0.88;;
21539;SDS011;10931;52.164;5.518;2024-01-15T05:46:01;5.20;;;0.63;;
21539;SDS011;10931;52.164;5.518;2024-01-15T05:48:27;14.80;;;1.17;;
21539;SDS011;10931;52.164;5.518;2024-01-15T05:50:53;7.93;;;1.10;;
21539;SDS011;10931;52.164;5.518;2024-01-15T05:53:22;4.80;;;0.98;;
21539;SDS011;10931;52.164;5.518;2024-01-15T05:55:48;6.07;;;0.80;;
21539;SDS011;10931;52.164;5.518;2024-01-15T05:58:13;8.40;;;0.88;;
21539;SDS011;10931;52.164;5.518;2024-01-15T06:00:39;4.72;;;0.60;;
21539;SDS011;10931;52.164;5.518;2024-01-15T06:03:05;5.00;;;0.85;;
21539;SDS011;10931;52.164;5.518;2024-01-15T06:05:33;8.45;;;1.13;;
21539;SDS011;10931;52.164;5.518;2024-01-15T06:07:59;7.45;;;1.00;;
21539;SDS011;10931;52.164;5.518;2024-01-15T06:10:25;9.95;;;0.85;;
21539;SDS011;10931;52.164;5.518;2024-01-15T06:12:50;6.43;;;0.73;;
21539;SDS011;10931;52.164;5.518;2024-01-15T06:15:16;3.05;;;0.80;;
21539;SDS011;10931;52.164;5.518;2024-01-15T06:17:43;6.57;;;0.90;;
21539;SDS011;10931;52.164;5.518;2024-01-15T06:20:09;17.00;;;1.50;;
21539;SDS011;10931;52.164;5.518;2024-01-15T06:22:35;10.52;;;1.38;;
21539;SDS011;10931;52.164;5.518;2024-01-15T06:25:01;5.97;;;0.98;;
21539;SDS011;10931;52.164;5.518;2024-01-15T06:27:28;10.30;;;1.45;;
21539;SDS011;10931;52.164;5.518;2024-01-15T06:29:53;6.93;;;1.95;;
21539;SDS011;10931;52.164;5.518;2024-01-15T06:32:20;11.25;;;1.50;;
21539;SDS011;10931;52.164;5.518;2024-01-15T06:34:46;2.47;;;0.85;;
21539;SDS011;10931;52.164;5.518;2024-01-15T06:37:12;11.05;;;1.10;;
21539;SDS011;10931;52.164;5.518;2024-01-15T06:39:38;12.18;;;1.23;;
21539;SDS011;10931;52.164;5.518;2024-01-15T06:42:04;6.55;;;1.35;;
21539;SDS011;10931;52.164;5.518;2024-01-15T06:44:29;6.80;;;1.15;;
21539;SDS011;10931;52.164;5.518;2024-01-15T06:46:55;7.68;;;1.50;;
21539;SDS011;10931;52.164;5.518;2024-01-15T06:49:24;6.60;;;1.20;;
21539;SDS011;10931;52.164;5.518;2024-01-15T06:51:50;7.20;;;1.55;;
21539;SDS011;10931;52.164;5.518;2024-01-15T06:54:15;3.83;;;1.50;;
21539;SDS011;10931;52.164;5.518;2024-01-15T06:56:41;7.53;;;1.58;;
21539;SDS011;10931;52.164;5.518;2024-01-15T06:59:07;6.68;;;1.45;;
21539;SDS011;10931;52.164;5.518;2024-01-15T07:01:33;5.65;;;1.35;;
21539;SDS011;10931;52.164;5.518;2024-01-15T07:03:58;7.88;;;2.10;;
21539;SDS011;10931;52.164;5.518;2024-01-15T07:06:24;6.40;;;2.13;;
21539;SDS011;10931;52.164;5.518;2024-01-15T07:08:50;8.90;;;1.95;;
21539;SDS011;10931;52.164;5.518;2024-01-15T07:11:15;7.60;;;1.92;;
21539;SDS011;10931;52.164;5.518;2024-01-15T07:13:41;7.65;;;2.28;;
21539;SDS011;10931;52.164;5.518;2024-01-15T07:16:06;6.85;;;2.03;;
21539;SDS011;10931;52.164;5.518;2024-01-15T07:18:32;7.50;;;2.03;;
21539;SDS011;10931;52.164;5.518;2024-01-15T07:20:58;7.90;;;2.55;;
21539;SDS011;10931;52.164;5.518;2024-01-15T07:23:24;11.43;;;2.63;;
21539;SDS011;10931;52.164;5.518;2024-01-15T07:25:49;9.00;;;2.53;;
21539;SDS011;10931;52.164;5.518;2024-01-15T07:28:17;11.10;;;2.92;;
21539;SDS011;10931;52.164;5.518;2024-01-15T07:30:43;7.18;;;2.53;;
21539;SDS011;10931;52.164;5.518;2024-01-15T07:33:10;7.18;;;2.38;;
21539;SDS011;10931;52.164;5.518;2024-01-15T07:35:35;9.57;;;2.15;;
21539;SDS011;10931;52.164;5.518;2024-01-15T07:38:01;6.57;;;1.88;;
21539;SDS011;10931;52.164;5.518;2024-01-15T07:40:28;7.35;;;2.38;;
21539;SDS011;10931;52.164;5.518;2024-01-15T07:42:53;8.90;;;2.28;;
21539;SDS011;10931;52.164;5.518;2024-01-15T07:45:19;6.40;;;2.13;;
21539;SDS011;10931;52.164;5.518;2024-01-15T07:47:45;9.93;;;2.08;;
21539;SDS011;10931;52.164;5.518;2024-01-15T07:50:11;5.10;;;1.98;;
21539;SDS011;10931;52.164;5.518;2024-01-15T07:52:36;11.05;;;2.75;;
21539;SDS011;10931;52.164;5.518;2024-01-15T07:55:03;10.07;;;2.33;;
21539;SDS011;10931;52.164;5.518;2024-01-15T07:57:30;4.10;;;1.73;;
21539;SDS011;10931;52.164;5.518;2024-01-15T07:59:55;7.20;;;1.73;;
21539;SDS011;10931;52.164;5.518;2024-01-15T08:02:21;8.48;;;2.00;;
21539;SDS011;10931;52.164;5.518;2024-01-15T08:04:47;3.88;;;1.67;;
21539;SDS011;10931;52.164;5.518;2024-01-15T08:07:13;9.88;;;2.22;;
21539;SDS011;10931;52.164;5.518;2024-01-15T08:09:42;5.43;;;2.00;;
21539;SDS011;10931;52.164;5.518;2024-01-15T08:12:08;7.15;;;1.92;;
21539;SDS011;10931;52.164;5.518;2024-01-15T08:14:35;8.95;;;1.90;;
21539;SDS011;10931;52.164;5.518;2024-01-15T08:17:00;9.90;;;1.80;;
21539;SDS011;10931;52.164;5.518;2024-01-15T08:19:26;10.38;;;2.15;;
21539;SDS011;10931;52.164;5.518;2024-01-15T08:21:52;10.73;;;1.80;;
21539;SDS011;10931;52.164;5.518;2024-01-15T08:24:18;10.27;;;1.63;;
21539;SDS011;10931;52.164;5.518;2024-01-15T08:26:43;13.52;;;2.20;;
21539;SDS011;10931;52.164;5.518;2024-01-15T08:29:10;7.20;;;2.10;;
21539;SDS011;10931;52.164;5.518;2024-01-15T08:31:38;4.40;;;1.90;;
21539;SDS011;10931;52.164;5.518;2024-01-15T08:34:04;8.77;;;2.35;;
21539;SDS011;10931;52.164;5.518;2024-01-15T08:36:32;9.10;;;2.47;;
21539;SDS011;10931;52.164;5.518;2024-01-15T08:39:00;8.15;;;2.65;;
21539;SDS011;10931;52.164;5.518;2024-01-15T08:41:26;7.72;;;2.75;;
21539;SDS011;10931;52.164;5.518;2024-01-15T08:43:51;8.35;;;2.10;;
21539;SDS011;10931;52.164;5.518;2024-01-15T08:46:18;9.40;;;2.20;;
21539;SDS011;10931;52.164;5.518;2024-01-15T08:48:44;9.40;;;2.63;;
21539;SDS011;10931;52.164;5.518;2024-01-15T08:51:09;8.98;;;2.63;;
21539;SDS011;10931;52.164;5.518;2024-01-15T08:53:35;6.68;;;2.80;;
21539;SDS011;10931;52.164;5.518;2024-01-15T08:56:00;5.65;;;2.53;;
21539;SDS011;10931;52.164;5.518;2024-01-15T08:58:27;7.15;;;2.70;;
21539;SDS011;10931;52.164;5.518;2024-01-15T09:00:52;10.85;;;3.03;;
21539;SDS011;10931;52.164;5.518;2024-01-15T09:03:18;10.05;;;2.65;;
21539;SDS011;10931;52.164;5.518;2024-01-15T09:05:43;14.30;;;2.80;;
21539;SDS011;10931;52.164;5.518;2024-01-15T09:08:09;10.80;;;2.38;;
21539;SDS011;10931;52.164;5.518;2024-01-15T09:10:35;10.60;;;2.67;;
21539;SDS011;10931;52.164;5.518;2024-01-15T09:13:00;6.53;;;2.55;;
21539;SDS011;10931;52.164;5.518;2024-01-15T09:15:28;7.93;;;2.08;;
21539;SDS011;10931;52.164;5.518;2024-01-15T09:17:54;5.25;;;1.60;;
21539;SDS011;10931;52.164;5.518;2024-01-15T09:20:20;6.03;;;1.88;;
21539;SDS011;10931;52.164;5.518;2024-01-15T09:22:50;9.48;;;1.95;;
21539;SDS011;10931;52.164;5.518;2024-01-15T09:25:16;4.47;;;1.63;;
21539;SDS011;10931;52.164;5.518;2024-01-15T09:27:42;5.00;;;1.80;;
21539;SDS011;10931;52.164;5.518;2024-01-15T09:30:08;11.00;;;2.20;;
21539;SDS011;10931;52.164;5.518;2024-01-15T09:32:34;9.57;;;1.50;;
21539;SDS011;10931;52.164;5.518;2024-01-15T09:35:00;5.68;;;1.60;;
21539;SDS011;10931;52.164;5.518;2024-01-15T09:37:26;8.88;;;1.40;;
21539;SDS011;10931;52.164;5.518;2024-01-15T09:39:51;4.30;;;1.58;;
21539;SDS011;10931;52.164;5.518;2024-01-15T09:42:18;7.63;;;1.30;;
21539;SDS011;10931;52.164;5.518;2024-01-15T09:44:44;7.40;;;1.60;;
21539;SDS011;10931;52.164;5.518;2024-01-15T09:47:11;7.63;;;1.30;;
21539;SDS011;10931;52.164;5.518;2024-01-15T09:49:37;4.20;;;1.40;;
21539;SDS011;10931;52.164;5.518;2024-01-15T09:52:05;10.45;;;1.90;;
21539;SDS011;10931;52.164;5.518;2024-01-15T09:54:33;5.25;;;1.52;;
21539;SDS011;10931;52.164;5.518;2024-01-15T09:56:59;5.18;;;1.55;;
21539;SDS011;10931;52.164;5.518;2024-01-15T09:59:25;4.60;;;1.20;;
21539;SDS011;10931;52.164;5.518;2024-01-15T10:01:53;8.52;;;1.27;;
21539;SDS011;10931;52.164;5.518;2024-01-15T10:04:20;10.98;;;1.13;;
21539;SDS011;10931;52.164;5.518;2024-01-15T10:06:46;9.80;;;1.10;;
21539;SDS011;10931;52.164;5.518;2024-01-15T10:09:13;10.50;;;1.20;;
21539;SDS011;10931;52.164;5.518;2024-01-15T10:11:42;7.70;;;1.30;;
21539;SDS011;10931;52.164;5.518;2024-01-15T10:14:11;14.02;;;1.60;;
21539;SDS011;10931;52.164;5.518;2024-01-15T10:16:37;3.65;;;1.25;;
21539;SDS011;10931;52.164;5.518;2024-01-15T10:19:04;10.18;;;1.42;;
21539;SDS011;10931;52.164;5.518;2024-01-15T10:21:31;17.33;;;1.48;;
21539;SDS011;10931;52.164;5.518;2024-01-15T10:23:59;9.43;;;1.73;;
21539;SDS011;10931;52.164;5.518;2024-01-15T10:26:26;8.48;;;1.55;;
21539;SDS011;10931;52.164;5.518;2024-01-15T10:28:52;12.55;;;1.45;;
21539;SDS011;10931;52.164;5.518;2024-01-15T10:31:17;11.32;;;1.70;;
21539;SDS011;10931;52.164;5.518;2024-01-15T10:33:44;4.63;;;1.00;;
21539;SDS011;10931;52.164;5.518;2024-01-15T10:36:10;4.40;;;0.98;;
21539;SDS011;10931;52.164;5.518;2024-01-15T10:38:38;6.07;;;1.13;;
21539;SDS011;10931;52.164;5.518;2024-01-15T10:41:04;8.85;;;1.15;;
21539;SDS011;10931;52.164;5.518;2024-01-15T10:43:29;4.70;;;1.05;;
21539;SDS011;10931;52.164;5.518;2024-01-15T10:45:55;9.23;;;1.02;;
21539;SDS011;10931;52.164;5.518;2024-01-15T10:48:21;5.47;;;1.00;;
21539;SDS011;10931;52.164;5.518;2024-01-15T10:50:47;9.25;;;1.13;;
21539;SDS011;10931;52.164;5.518;2024-01-15T10:53:16;9.68;;;1.40;;
21539;SDS011;10931;52.164;5.518;2024-01-15T10:55:42;9.95;;;1.20;;
21539;SDS011;10931;52.164;5.518;2024-01-15T10:58:08;10.63;;;1.70;;
21539;SDS011;10931;52.164;5.518;2024-01-15T11:00:35;11.85;;;1.75;;
21539;SDS011;10931;52.164;5.518;2024-01-15T11:03:02;10.98;;;1.67;;
21539;SDS011;10931;52.164;5.518;2024-01-15T11:05:33;9.25;;;1.60;;
21539;SDS011;10931;52.164;5.518;2024-01-15T11:08:01;12.52;;;1.42;;
21539;SDS011;10931;52.164;5.518;2024-01-15T11:13:14;14.18;;;2.70;;
21539;SDS011;10931;52.164;5.518;2024-01-15T11:15:55;8.70;;;1.58;;
21539;SDS011;10931;52.164;5.518;2024-01-15T11:18:29;12.55;;;1.90;;
21539;SDS011;10931;52.164;5.518;2024-01-15T11:23:46;5.90;;;1.52;;
21539;SDS011;10931;52.164;5.518;2024-01-15T11:29:04;8.02;;;2.00;;
21539;SDS011;10931;52.164;5.518;2024-01-15T11:34:05;8.02;;;1.45;;
21539;SDS011;10931;52.164;5.518;2024-01-15T11:41:57;4.82;;;1.80;;
21539;SDS011;10931;52.164;5.518;2024-01-15T11:44:24;15.75;;;1.58;;
21539;SDS011;10931;52.164;5.518;2024-01-15T11:47:03;12.00;;;1.70;;
21539;SDS011;10931;52.164;5.518;2024-01-15T11:52:34;5.95;;;1.33;;
21539;SDS011;10931;52.164;5.518;2024-01-15T11:55:03;4.07;;;1.20;;
21539;SDS011;10931;52.164;5.518;2024-01-15T12:00:13;3.63;;;1.02;;
21539;SDS011;10931;52.164;5.518;2024-01-15T12:02:40;4.15;;;1.05;;
21539;SDS011;10931;52.164;5.518;2024-01-15T12:05:07;5.07;;;0.80;;
21539;SDS011;10931;52.164;5.518;2024-01-15T12:07:34;3.03;;;0.80;;
21539;SDS011;10931;52.164;5.518;2024-01-15T12:10:00;8.15;;;1.42;;
21539;SDS011;10931;52.164;5.518;2024-01-15T12:12:50;5.00;;;1.20;;
21539;SDS011;10931;52.164;5.518;2024-01-15T12:15:34;2.90;;;0.70;;
21539;SDS011;10931;52.164;5.518;2024-01-15T12:18:01;9.10;;;0.90;;
21539;SDS011;10931;52.164;5.518;2024-01-15T12:20:30;5.03;;;1.00;;
21539;SDS011;10931;52.164;5.518;2024-01-15T12:22:57;6.47;;;1.27;;
21539;SDS011;10931;52.164;5.518;2024-01-15T12:25:23;5.07;;;1.30;;
21539;SDS011;10931;52.164;5.518;2024-01-15T12:27:49;6.70;;;1.48;;
21539;SDS011;10931;52.164;5.518;2024-01-15T12:30:16;7.82;;;1.85;;
21539;SDS011;10931;52.164;5.518;2024-01-15T12:32:42;3.95;;;1.00;;
21539;SDS011;10931;52.164;5.518;2024-01-15T12:35:08;6.18;;;1.45;;
21539;SDS011;10931;52.164;5.518;2024-01-15T12:37:40;9.95;;;1.45;;
21539;SDS011;10931;52.164;5.518;2024-01-15T12:40:07;6.40;;;1.30;;
21539;SDS011;10931;52.164;5.518;2024-01-15T12:42:37;5.07;;;1.33;;
21539;SDS011;10931;52.164;5.518;2024-01-15T12:45:03;6.47;;;2.13;;
21539;SDS011;10931;52.164;5.518;2024-01-15T12:47:31;5.28;;;1.23;;
21539;SDS011;10931;52.164;5.518;2024-01-15T12:49:57;7.82;;;1.30;;
21539;SDS011;10931;52.164;5.518;2024-01-15T12:52:26;5.25;;;0.77;;
21539;SDS011;10931;52.164;5.518;2024-01-15T12:54:55;10.82;;;1.38;;
21539;SDS011;10931;52.164;5.518;2024-01-15T12:57:21;6.60;;;1.17;;
21539;SDS011;10931;52.164;5.518;2024-01-15T12:59:48;3.17;;;0.95;;
21539;SDS011;10931;52.164;5.518;2024-01-15T13:02:15;13.75;;;1.58;;
21539;SDS011;10931;52.164;5.518;2024-01-15T13:04:43;5.40;;;1.23;;
21539;SDS011;10931;52.164;5.518;2024-01-15T13:07:09;7.20;;;1.25;;
21539;SDS011;10931;52.164;5.518;2024-01-15T13:09:35;10.00;;;1.00;;
21539;SDS011;10931;52.164;5.518;2024-01-15T13:12:01;8.80;;;1.20;;
21539;SDS011;10931;52.164;5.518;2024-01-15T13:14:27;10.93;;;1.42;;
21539;SDS011;10931;52.164;5.518;2024-01-15T13:16:53;5.10;;;0.93;;
21539;SDS011;10931;52.164;5.518;2024-01-15T13:19:20;7.28;;;0.95;;
21539;SDS011;10931;52.164;5.518;2024-01-15T13:21:49;3.70;;;0.95;;
21539;SDS011;10931;52.164;5.518;2024-01-15T13:24:16;6.65;;;0.88;;
21539;SDS011;10931;52.164;5.518;2024-01-15T13:26:42;8.15;;;1.48;;
21539;SDS011;10931;52.164;5.518;2024-01-15T13:29:08;2.97;;;0.85;;
21539;SDS011;10931;52.164;5.518;2024-01-15T13:31:37;4.45;;;1.15;;
21539;SDS011;10931;52.164;5.518;2024-01-15T13:34:03;7.88;;;1.08;;
21539;SDS011;10931;52.164;5.518;2024-01-15T13:36:29;4.40;;;1.08;;
21539;SDS011;10931;52.164;5.518;2024-01-15T13:38:54;9.10;;;1.05;;
21539;SDS011;10931;52.164;5.518;2024-01-15T13:41:21;4.43;;;0.98;;
21539;SDS011;10931;52.164;5.518;2024-01-15T13:43:50;11.18;;;1.23;;
21539;SDS011;10931;52.164;5.518;2024-01-15T13:46:17;5.50;;;1.27;;
21539;SDS011;10931;52.164;5.518;2024-01-15T13:48:44;7.57;;;1.13;;
21539;SDS011;10931;52.164;5.518;2024-01-15T13:51:10;9.05;;;1.55;;
21539;SDS011;10931;52.164;5.518;2024-01-15T13:53:37;11.05;;;1.52;;
21539;SDS011;10931;52.164;5.518;2024-01-15T13:56:03;6.55;;;1.45;;
21539;SDS011;10931;52.164;5.518;2024-01-15T13:58:30;7.63;;;1.40;;
21539;SDS011;10931;52.164;5.518;2024-01-15T14:00:55;7.43;;;1.33;;
21539;SDS011;10931;52.164;5.518;2024-01-15T14:03:21;13.15;;;1.95;;
21539;SDS011;10931;52.164;5.518;2024-01-15T14:05:47;4.97;;;1.27;;
21539;SDS011;10931;52.164;5.518;2024-01-15T14:08:13;9.52;;;1.50;;
21539;SDS011;10931;52.164;5.518;2024-01-15T14:10:39;10.88;;;1.55;;
21539;SDS011;10931;52.164;5.518;2024-01-15T14:13:04;5.38;;;1.10;;
21539;SDS011;10931;52.164;5.518;2024-01-15T14:15:30;19.63;;;2.83;;
21539;SDS011;10931;52.164;5.518;2024-01-15T14:17:56;10.60;;;1.80;;
21539;SDS011;10931;52.164;5.518;2024-01-15T14:20:22;8.45;;;1.52;;
21539;SDS011;10931;52.164;5.518;2024-01-15T14:22:48;7.95;;;1.38;;
21539;SDS011;10931;52.164;5.518;2024-01-15T14:25:14;12.30;;;1.27;;
21539;SDS011;10931;52.164;5.518;2024-01-15T14:27:39;12.05;;;1.48;;
21539;SDS011;10931;52.164;5.518;2024-01-15T14:30:05;9.32;;;1.50;;
21539;SDS011;10931;52.164;5.518;2024-01-15T14:32:33;9.43;;;1.70;;
21539;SDS011;10931;52.164;5.518;2024-01-15T14:35:02;7.43;;;1.25;;
21539;SDS011;10931;52.164;5.518;2024-01-15T14:37:30;3.00;;;0.70;;
21539;SDS011;10931;52.164;5.518;2024-01-15T14:39:56;10.63;;;1.27;;
21539;SDS011;10931;52.164;5.518;2024-01-15T14:42:21;15.15;;;1.80;;
21539;SDS011;10931;52.164;5.518;2024-01-15T14:44:47;6.13;;;1.15;;
21539;SDS011;10931;52.164;5.518;2024-01-15T14:47:13;5.28;;;1.00;;
21539;SDS011;10931;52.164;5.518;2024-01-15T14:49:38;9.07;;;1.23;;
21539;SDS011;10931;52.164;5.518;2024-01-15T14:52:04;9.15;;;1.80;;
21539;SDS011;10931;52.164;5.518;2024-01-15T14:54:31;8.50;;;1.17;;
21539;SDS011;10931;52.164;5.518;2024-01-15T14:56:57;9.15;;;1.73;;
21539;SDS011;10931;52.164;5.518;2024-01-15T14:59:22;12.68;;;1.42;;
21539;SDS011;10931;52.164;5.518;2024-01-15T15:01:48;8.20;;;1.42;;
21539;SDS011;10931;52.164;5.518;2024-01-15T15:04:14;6.03;;;1.45;;